Time;durP1;ratioP1;P1;durP2;ratioP2;P2;SDS_P1;SDS_P2;PMS_P1;PMS_P2;Temp;Humidity;BMP_temperature;BMP_pressure;BME280_temperature;BME280_humidity;BME280_pressure;Samples;Min_cycle;Max_cycle;Signal;HPM_P1;HPM_P2
2022/07/22 00:00:57;;;;;;;3.28;0.98;;;16.30;99.90;;;;;;4994342;28;20042;-75
2022/07/22 00:03:23;;;;;;;6.60;1.38;;;16.40;99.90;;;;;;4984059;28;20487;-76
2022/07/22 00:05:48;;;;;;;2.92;1.30;;;16.30;99.90;;;;;;4987889;28;20492;-76
2022/07/22 00:08:14;;;;;;;2.78;0.90;;;16.30;99.90;;;;;;4989355;28;20050;-76
2022/07/22 00:10:40;;;;;;;2.33;0.90;;;16.40;99.90;;;;;;4978617;28;20088;-71
2022/07/22 00:13:06;;;;;;;6.45;1.00;;;16.30;99.90;;;;;;4982202;28;20617;-71
2022/07/22 00:15:31;;;;;;;3.97;1.50;;;16.30;99.90;;;;;;4989949;28;20053;-71
2022/07/22 00:17:57;;;;;;;8.40;1.20;;;16.30;99.90;;;;;;4981338;28;20053;-71
2022/07/22 00:20:23;;;;;;;2.65;0.63;;;16.30;99.90;;;;;;4972997;28;20399;-71
2022/07/22 00:22:48;;;;;;;4.40;0.90;;;16.30;99.90;;;;;;4979542;28;20086;-71
2022/07/22 00:25:14;;;;;;;4.15;1.50;;;16.30;99.90;;;;;;4975769;28;20034;-70
2022/07/22 00:27:40;;;;;;;2.28;1.00;;;16.30;99.90;;;;;;4981128;28;20038;-71
2022/07/22 00:30:06;;;;;;;3.30;1.00;;;16.30;99.90;;;;;;4978908;28;20034;-71
2022/07/22 00:32:32;;;;;;;3.70;0.80;;;16.30;99.90;;;;;;4966138;28;20042;-70
2022/07/22 00:34:57;;;;;;;4.15;0.90;;;16.20;99.90;;;;;;4970710;28;20413;-71
2022/07/22 00:37:23;;;;;;;4.47;1.10;;;16.30;99.90;;;;;;4987829;28;20516;-69
2022/07/22 00:42:19;;;;;;;5.28;1.02;;;16.20;99.90;;;;;;4999618;28;19925;-68
2022/07/22 00:44:45;;;;;;;5.95;1.15;;;16.30;99.90;;;;;;4999069;28;20275;-68
2022/07/22 00:47:11;;;;;;;4.78;1.10;;;16.30;99.90;;;;;;4995196;28;20043;-68
2022/07/22 00:49:37;;;;;;;3.70;0.75;;;16.20;99.90;;;;;;5013115;28;20099;-68
2022/07/22 00:52:04;;;;;;;3.42;1.23;;;16.30;99.90;;;;;;5023135;28;20042;-68
2022/07/22 00:54:30;;;;;;;6.80;0.98;;;16.20;99.90;;;;;;5017770;28;20072;-68
2022/07/22 00:56:56;;;;;;;5.50;1.58;;;16.20;99.90;;;;;;5024497;28;20045;-68
2022/07/22 00:59:22;;;;;;;3.60;0.90;;;16.20;99.90;;;;;;5019772;28;20040;-69
2022/07/22 01:01:47;;;;;;;2.85;0.70;;;16.20;99.90;;;;;;5016716;28;20030;-68
2022/07/22 01:04:13;;;;;;;3.45;1.00;;;16.20;99.90;;;;;;5024625;28;20029;-68
2022/07/22 01:06:44;;;;;;;3.45;0.77;;;16.20;99.90;;;;;;5022708;28;20092;-68
2022/07/22 01:09:10;;;;;;;2.88;0.80;;;16.30;99.90;;;;;;5023295;28;20705;-68
2022/07/22 01:11:36;;;;;;;3.47;0.85;;;16.20;99.90;;;;;;5024498;28;20061;-68
2022/07/22 01:14:02;;;;;;;2.90;0.70;;;16.20;99.90;;;;;;5015367;28;20083;-68
2022/07/22 01:16:28;;;;;;;3.33;1.27;;;16.20;99.90;;;;;;5024078;28;20041;-68
2022/07/22 01:18:54;;;;;;;3.10;0.93;;;16.20;99.90;;;;;;5023565;28;20619;-68
2022/07/22 01:21:22;;;;;;;3.17;0.70;;;16.20;99.90;;;;;;5019375;28;20044;-68
2022/07/22 01:23:48;;;;;;;7.05;1.10;;;16.20;99.90;;;;;;5016114;28;20046;-68
2022/07/22 01:26:14;;;;;;;4.00;1.05;;;16.20;99.90;;;;;;5020336;28;20079;-68
2022/07/22 01:28:40;;;;;;;5.65;0.90;;;16.20;99.90;;;;;;5021006;28;20045;-68
2022/07/22 01:31:06;;;;;;;2.63;1.00;;;16.20;99.90;;;;;;5016743;28;20363;-68
2022/07/22 01:33:33;;;;;;;3.08;0.88;;;16.20;99.90;;;;;;5017173;28;20048;-68
2022/07/22 01:35:59;;;;;;;3.42;1.00;;;16.20;99.90;;;;;;5002042;28;20100;-68
2022/07/22 01:38:25;;;;;;;2.60;0.82;;;16.10;99.90;;;;;;5019328;28;20041;-68
2022/07/22 01:40:51;;;;;;;6.88;1.33;;;16.20;99.90;;;;;;5019545;28;20041;-68
2022/07/22 01:43:20;;;;;;;4.15;1.05;;;16.20;99.90;;;;;;5019456;28;20048;-68
2022/07/22 01:45:47;;;;;;;4.38;0.75;;;16.10;99.90;;;;;;5017898;28;20052;-68
2022/07/22 01:48:13;;;;;;;1.95;0.68;;;16.20;99.90;;;;;;5020820;28;20037;-68
2022/07/22 01:50:39;;;;;;;2.63;0.80;;;16.20;99.90;;;;;;5015218;28;20041;-68
2022/07/22 01:53:05;;;;;;;3.13;0.80;;;16.10;99.90;;;;;;5020010;28;20034;-68
2022/07/22 01:55:30;;;;;;;3.67;0.77;;;16.10;99.90;;;;;;5021806;28;20090;-68
2022/07/22 01:57:56;;;;;;;4.40;0.93;;;16.10;99.90;;;;;;5013443;28;20045;-68
2022/07/22 02:00:24;;;;;;;3.42;1.30;;;16.10;99.90;;;;;;5016282;28;20506;-68
2022/07/22 02:02:50;;;;;;;4.55;0.90;;;16.20;99.90;;;;;;5015113;28;20394;-68
2022/07/22 02:05:17;;;;;;;3.20;0.80;;;16.20;99.90;;;;;;5015933;28;20034;-68
2022/07/22 02:07:42;;;;;;;4.75;1.20;;;16.10;99.90;;;;;;5016085;28;20143;-68
2022/07/22 02:10:08;;;;;;;3.78;1.10;;;16.10;99.90;;;;;;5020515;28;20037;-68
2022/07/22 02:12:34;;;;;;;11.75;1.00;;;16.10;99.90;;;;;;5017301;28;20041;-68
2022/07/22 02:15:00;;;;;;;4.57;0.93;;;16.10;99.90;;;;;;5018590;28;20053;-68
2022/07/22 02:17:25;;;;;;;3.40;1.23;;;16.10;99.90;;;;;;5021470;28;20038;-68
2022/07/22 02:19:51;;;;;;;3.13;0.90;;;16.10;99.90;;;;;;5015693;28;20037;-68
2022/07/22 02:22:17;;;;;;;5.53;1.15;;;16.10;99.90;;;;;;5023211;28;20469;-68
2022/07/22 02:24:43;;;;;;;2.50;0.88;;;16.10;99.90;;;;;;5018913;28;20389;-68
2022/07/22 02:27:08;;;;;;;5.15;1.13;;;16.10;99.90;;;;;;5025574;28;20033;-68
2022/07/22 02:29:34;;;;;;;3.85;1.45;;;16.10;99.90;;;;;;5004606;28;20053;-68
2022/07/22 02:32:00;;;;;;;3.65;0.93;;;16.10;99.90;;;;;;5022895;28;20397;-68
2022/07/22 02:34:25;;;;;;;3.83;1.63;;;16.10;99.90;;;;;;5016751;28;20146;-68
2022/07/22 02:36:51;;;;;;;2.92;0.70;;;16.10;99.90;;;;;;5017006;28;20045;-68
2022/07/22 02:39:17;;;;;;;3.75;1.20;;;16.10;99.90;;;;;;5026534;28;20164;-68
2022/07/22 02:41:43;;;;;;;4.35;1.00;;;16.10;99.90;;;;;;5029181;28;20120;-68
2022/07/22 02:44:09;;;;;;;3.40;0.95;;;16.10;99.90;;;;;;5027134;28;20040;-68
2022/07/22 02:46:34;;;;;;;2.20;0.90;;;16.00;99.90;;;;;;5028142;28;20112;-68
2022/07/22 02:49:00;;;;;;;3.85;1.58;;;16.10;99.90;;;;;;5024264;28;20041;-68
2022/07/22 02:51:26;;;;;;;2.00;0.80;;;16.10;99.90;;;;;;5035449;28;20080;-68
2022/07/22 02:53:52;;;;;;;6.32;1.00;;;16.10;99.90;;;;;;5014951;28;20505;-68
2022/07/22 02:56:19;;;;;;;5.15;1.20;;;16.10;99.90;;;;;;5017277;28;20037;-68
2022/07/22 02:58:46;;;;;;;3.03;0.95;;;16.00;99.90;;;;;;5023485;28;20065;-68
2022/07/22 03:01:12;;;;;;;5.75;0.82;;;16.00;99.90;;;;;;5018265;28;20033;-68
2022/07/22 03:03:38;;;;;;;3.90;1.05;;;16.10;99.90;;;;;;5021131;28;20128;-68
2022/07/22 03:06:04;;;;;;;5.38;1.10;;;16.10;99.90;;;;;;5026211;28;20116;-68
2022/07/22 03:08:29;;;;;;;3.40;1.45;;;16.00;99.90;;;;;;5017293;28;20662;-68
2022/07/22 03:10:55;;;;;;;1.83;0.88;;;16.00;99.90;;;;;;5010780;28;20038;-68
2022/07/22 03:13:20;;;;;;;2.83;0.80;;;16.00;99.90;;;;;;5016277;28;20120;-68
2022/07/22 03:15:46;;;;;;;5.18;1.00;;;16.00;99.90;;;;;;5015452;28;20065;-67
2022/07/22 03:18:12;;;;;;;9.43;1.15;;;16.00;99.90;;;;;;5022271;28;20048;-68
2022/07/22 03:20:37;;;;;;;3.45;0.80;;;16.00;99.90;;;;;;5024359;28;20044;-68
2022/07/22 03:23:03;;;;;;;3.90;1.00;;;16.00;99.90;;;;;;5023629;28;20836;-68
2022/07/22 03:25:30;;;;;;;3.25;0.90;;;16.00;99.90;;;;;;5018729;28;20404;-68
2022/07/22 03:27:56;;;;;;;2.45;1.00;;;16.00;99.90;;;;;;5022774;28;20542;-68
2022/07/22 03:30:22;;;;;;;2.13;0.75;;;16.00;99.90;;;;;;5021000;28;20138;-68
2022/07/22 03:32:48;;;;;;;3.05;0.80;;;16.00;99.90;;;;;;5016385;28;20045;-68
2022/07/22 03:35:14;;;;;;;3.97;0.80;;;16.00;99.90;;;;;;5018676;28;20609;-68
2022/07/22 03:37:40;;;;;;;3.10;1.25;;;16.00;99.90;;;;;;5020022;28;20064;-68
2022/07/22 03:40:06;;;;;;;2.17;0.85;;;16.00;99.90;;;;;;5025311;28;20034;-68
2022/07/22 03:42:32;;;;;;;;;;;16.00;99.90;;;;;;5018905;28;20048;-68
2022/07/22 03:44:58;;;;;;;2.58;1.13;;;16.00;99.90;;;;;;5025041;28;19921;-68
2022/07/22 03:47:23;;;;;;;4.53;1.02;;;16.00;99.90;;;;;;5026646;28;20111;-68
2022/07/22 03:49:50;;;;;;;2.58;0.88;;;15.90;99.90;;;;;;5024284;28;20096;-68
2022/07/22 03:52:16;;;;;;;8.05;1.15;;;16.00;99.90;;;;;;5018306;28;20063;-68
2022/07/22 03:54:43;;;;;;;6.32;0.85;;;16.00;99.90;;;;;;5028378;28;20029;-68
2022/07/22 03:57:09;;;;;;;6.47;1.13;;;15.90;99.90;;;;;;5028988;28;20112;-68
2022/07/22 03:59:35;;;;;;;2.85;1.20;;;15.90;99.90;;;;;;5025946;28;20156;-68
2022/07/22 04:02:02;;;;;;;4.60;1.15;;;15.90;99.90;;;;;;5019181;28;20071;-68
2022/07/22 04:04:28;;;;;;;2.13;1.20;;;15.90;99.90;;;;;;5012693;28;20095;-68
2022/07/22 04:06:54;;;;;;;3.25;0.90;;;16.00;99.90;;;;;;5018074;28;20044;-68
2022/07/22 04:09:19;;;;;;;3.17;0.88;;;16.00;99.90;;;;;;5016188;28;20037;-68
2022/07/22 04:11:46;;;;;;;4.45;1.10;;;15.90;99.90;;;;;;5028271;28;20275;-68
2022/07/22 04:14:11;;;;;;;4.30;1.13;;;16.00;99.90;;;;;;5019277;28;20037;-68
2022/07/22 04:16:37;;;;;;;4.07;1.17;;;15.90;99.90;;;;;;5018052;28;20056;-68
2022/07/22 04:19:04;;;;;;;5.05;1.00;;;15.90;99.90;;;;;;5023180;28;20045;-68
2022/07/22 04:21:29;;;;;;;;;;;16.00;99.90;;;;;;5016066;28;20029;-68
2022/07/22 04:23:55;;;;;;;6.35;1.27;;;16.00;99.90;;;;;;5006621;28;19921;-68
2022/07/22 04:26:21;;;;;;;4.25;0.90;;;15.90;99.90;;;;;;5007306;28;20124;-68
2022/07/22 04:28:47;;;;;;;3.25;0.95;;;16.00;99.90;;;;;;5020027;28;20045;-68
2022/07/22 04:31:12;;;;;;;2.20;0.93;;;16.00;99.90;;;;;;5018785;28;20428;-68
2022/07/22 04:33:38;;;;;;;6.43;1.10;;;16.00;99.90;;;;;;5013410;28;20041;-68
2022/07/22 04:36:04;;;;;;;4.88;1.15;;;15.90;99.90;;;;;;5011724;28;20044;-68
2022/07/22 04:38:29;;;;;;;2.30;1.23;;;16.00;99.90;;;;;;5016190;28;20307;-68
2022/07/22 04:40:55;;;;;;;1.95;0.75;;;16.00;99.90;;;;;;5015423;28;20030;-68
2022/07/22 04:43:21;;;;;;;4.43;1.15;;;16.00;99.90;;;;;;5014561;28;20096;-68
2022/07/22 04:45:47;;;;;;;2.58;0.70;;;16.00;99.90;;;;;;5016107;28;20545;-68
2022/07/22 04:48:12;;;;;;;2.92;0.88;;;16.00;99.90;;;;;;5015087;28;20034;-68
2022/07/22 04:50:38;;;;;;;2.83;0.82;;;16.00;99.90;;;;;;5018022;28;20069;-68
2022/07/22 04:53:04;;;;;;;2.22;0.90;;;16.00;99.90;;;;;;5004771;28;20038;-68
2022/07/22 04:55:30;;;;;;;2.85;0.75;;;16.00;99.90;;;;;;5011355;28;20521;-68
2022/07/22 04:57:55;;;;;;;4.38;0.73;;;16.00;99.90;;;;;;5004341;28;20041;-68
2022/07/22 05:00:22;;;;;;;4.90;0.83;;;16.00;99.90;;;;;;5017079;28;20413;-68
2022/07/22 05:02:47;;;;;;;;;;;16.00;99.90;;;;;;5010494;28;20785;-68
2022/07/22 05:05:13;;;;;;;2.33;0.70;;;16.00;99.90;;;;;;5014387;28;19979;-68
2022/07/22 05:07:39;;;;;;;1.75;0.80;;;16.00;99.90;;;;;;5011303;28;21184;-68
2022/07/22 05:10:05;;;;;;;2.92;0.95;;;16.10;99.90;;;;;;5021787;28;20088;-68
2022/07/22 05:12:31;;;;;;;1.92;0.82;;;16.00;99.90;;;;;;5019378;28;20453;-68
2022/07/22 05:14:57;;;;;;;5.18;1.10;;;16.10;99.90;;;;;;5013941;28;20037;-68
2022/07/22 05:17:22;;;;;;;2.15;0.65;;;16.10;99.90;;;;;;5013168;28;20087;-68
2022/07/22 05:19:48;;;;;;;2.45;0.70;;;16.10;99.90;;;;;;5014971;28;20073;-68
2022/07/22 05:22:14;;;;;;;5.35;0.70;;;16.10;99.90;;;;;;5019335;28;20454;-68
2022/07/22 05:24:39;;;;;;;6.38;1.10;;;16.10;99.90;;;;;;5018609;28;20054;-68
2022/07/22 05:27:05;;;;;;;2.60;0.80;;;16.10;99.90;;;;;;5020744;28;20260;-68
2022/07/22 05:29:31;;;;;;;6.07;1.00;;;16.10;99.90;;;;;;5018881;28;20122;-67
2022/07/22 05:31:56;;;;;;;2.08;0.90;;;16.20;99.90;;;;;;5018680;28;20041;-68
2022/07/22 05:34:22;;;;;;;3.97;1.00;;;16.20;99.90;;;;;;5007793;28;20068;-68
2022/07/22 05:36:48;;;;;;;2.15;0.60;;;16.20;99.90;;;;;;5020743;28;20638;-68
2022/07/22 05:39:14;;;;;;;2.15;0.73;;;16.20;99.90;;;;;;5024748;28;20225;-68
2022/07/22 05:41:39;;;;;;;1.70;0.65;;;16.20;99.90;;;;;;5016178;28;20072;-68
2022/07/22 05:44:05;;;;;;;3.50;0.75;;;16.30;99.90;;;;;;5011945;28;20461;-68
2022/07/22 05:46:31;;;;;;;5.95;0.77;;;16.20;99.90;;;;;;5014897;28;20184;-68
2022/07/22 05:48:57;;;;;;;2.88;1.02;;;16.20;99.90;;;;;;5020504;28;20049;-68
2022/07/22 05:51:22;;;;;;;4.13;1.40;;;16.30;99.90;;;;;;5022342;28;20034;-68
2022/07/22 05:53:48;;;;;;;3.85;0.80;;;16.20;99.90;;;;;;5019997;28;20045;-68
2022/07/22 05:56:14;;;;;;;4.15;0.80;;;16.20;99.90;;;;;;5023421;28;20433;-68
2022/07/22 05:58:41;;;;;;;2.72;0.70;;;16.30;99.90;;;;;;5019325;28;20076;-69
2022/07/22 06:01:08;;;;;;;4.28;0.70;;;16.30;99.90;;;;;;5005210;28;20037;-69
2022/07/22 06:03:33;;;;;;;1.38;0.77;;;16.40;99.90;;;;;;5020967;28;20029;-69
2022/07/22 06:06:01;;;;;;;3.40;1.15;;;16.30;99.90;;;;;;5021262;28;20039;-68
2022/07/22 06:08:27;;;;;;;1.85;0.63;;;16.30;99.90;;;;;;5016364;28;20073;-68
2022/07/22 06:10:52;;;;;;;3.70;1.05;;;16.40;99.90;;;;;;5019630;28;20042;-68
2022/07/22 06:13:18;;;;;;;5.45;0.80;;;16.40;99.90;;;;;;5023353;28;20402;-69
2022/07/22 06:15:44;;;;;;;3.70;0.63;;;16.40;99.90;;;;;;5016066;28;20045;-71
2022/07/22 06:18:10;;;;;;;3.13;1.05;;;16.40;99.90;;;;;;5022197;28;20033;-71
2022/07/22 06:20:36;;;;;;;3.55;0.80;;;16.40;99.90;;;;;;5018595;28;20531;-71
2022/07/22 06:23:01;;;;;;;3.58;1.00;;;16.40;99.90;;;;;;5022283;28;20044;-71
2022/07/22 06:25:27;;;;;;;3.63;0.80;;;16.40;99.90;;;;;;5022282;28;20521;-70
2022/07/22 06:27:53;;;;;;;3.25;0.82;;;16.30;99.90;;;;;;5023499;28;20080;-72
2022/07/22 06:30:19;;;;;;;1.40;0.70;;;16.40;99.90;;;;;;5019733;28;20038;-71
2022/07/22 06:32:44;;;;;;;3.63;1.13;;;16.40;99.90;;;;;;5019158;28;20658;-69
2022/07/22 06:35:10;;;;;;;1.97;0.77;;;16.40;99.90;;;;;;5004634;28;20068;-68
2022/07/22 06:37:35;;;;;;;5.47;0.88;;;16.40;99.90;;;;;;5017324;28;20387;-72
2022/07/22 06:40:02;;;;;;;2.40;0.70;;;16.40;99.90;;;;;;5020555;28;20041;-69
2022/07/22 06:42:27;;;;;;;4.97;1.77;;;16.50;99.90;;;;;;5011618;22;20424;-70
2022/07/22 06:44:53;;;;;;;2.53;1.05;;;16.50;99.90;;;;;;4977813;28;20030;-69
2022/07/22 06:47:19;;;;;;;3.35;0.82;;;16.50;99.90;;;;;;4967802;28;20129;-69
2022/07/22 06:49:44;;;;;;;2.25;0.57;;;16.50;99.90;;;;;;4983443;28;20068;-69
2022/07/22 06:52:11;;;;;;;3.10;0.73;;;16.60;99.90;;;;;;4977614;28;20096;-69
2022/07/22 06:54:36;;;;;;;5.85;1.27;;;16.60;99.90;;;;;;4964980;28;20469;-69
2022/07/22 06:57:02;;;;;;;3.58;1.23;;;16.80;99.90;;;;;;4982921;28;20045;-70
2022/07/22 06:59:28;;;;;;;4.63;1.25;;;16.70;99.90;;;;;;4981043;28;20113;-69
2022/07/22 07:01:53;;;;;;;2.35;0.90;;;16.70;99.90;;;;;;4986331;28;20051;-72
2022/07/22 07:04:19;;;;;;;2.58;0.93;;;16.70;99.90;;;;;;4982564;28;20176;-69
2022/07/22 07:06:45;;;;;;;2.90;0.80;;;16.70;99.90;;;;;;4980171;28;20566;-69
2022/07/22 07:09:11;;;;;;;3.92;0.80;;;16.80;99.90;;;;;;4980824;28;20058;-69
2022/07/22 07:11:37;;;;;;;2.58;0.82;;;16.80;99.90;;;;;;4984883;28;20045;-69
2022/07/22 07:14:02;;;;;;;2.13;0.73;;;16.80;99.90;;;;;;4986565;28;20396;-69
2022/07/22 07:16:28;;;;;;;2.30;0.73;;;16.80;99.90;;;;;;4986005;28;20038;-69
2022/07/22 07:18:54;;;;;;;2.78;1.05;;;16.80;99.90;;;;;;4978359;28;20053;-69
2022/07/22 07:21:20;;;;;;;2.08;0.70;;;16.80;99.90;;;;;;4983680;28;20057;-69
2022/07/22 07:23:45;;;;;;;2.95;0.75;;;16.70;99.90;;;;;;4986203;28;20042;-69
2022/07/22 07:26:11;;;;;;;1.92;0.60;;;16.80;99.90;;;;;;4987272;28;20030;-69
2022/07/22 07:28:37;;;;;;;4.55;0.82;;;16.80;99.90;;;;;;4965725;28;20042;-69
2022/07/22 07:31:02;;;;;;;2.35;0.98;;;16.80;99.90;;;;;;4983568;28;20050;-69
2022/07/22 07:33:28;;;;;;;4.22;0.98;;;16.90;99.90;;;;;;4976065;28;20042;-69
2022/07/22 07:35:54;;;;;;;5.53;1.42;;;16.90;99.90;;;;;;4982496;28;20042;-69
2022/07/22 07:38:19;;;;;;;1.23;0.47;;;16.90;99.90;;;;;;4984174;28;20050;-67
2022/07/22 07:40:45;;;;;;;4.43;1.00;;;17.00;99.90;;;;;;4983741;28;20407;-69
2022/07/22 07:43:11;;;;;;;3.53;0.80;;;17.00;99.90;;;;;;4985431;28;20057;-69
2022/07/22 07:45:37;;;;;;;3.58;0.60;;;17.00;99.90;;;;;;4982743;28;20089;-69
2022/07/22 07:48:03;;;;;;;2.35;0.73;;;17.10;99.90;;;;;;4985167;28;20077;-69
2022/07/22 07:50:29;;;;;;;1.27;0.77;;;17.10;99.90;;;;;;4982930;28;20444;-69
2022/07/22 07:52:56;;;;;;;1.90;0.90;;;17.20;99.90;;;;;;4978986;28;20049;-68
2022/07/22 07:55:22;;;;;;;2.83;1.20;;;17.20;99.90;;;;;;4975653;28;20526;-68
2022/07/22 07:57:49;;;;;;;1.45;0.60;;;17.20;99.90;;;;;;4980606;28;20038;-68
2022/07/22 08:00:17;;;;;;;1.48;0.55;;;17.10;99.90;;;;;;4981517;28;20057;-68
2022/07/22 08:02:43;;;;;;;2.25;0.73;;;17.20;99.90;;;;;;4985036;28;20061;-68
2022/07/22 08:05:10;;;;;;;2.42;0.65;;;17.20;99.90;;;;;;4977183;28;20146;-69
2022/07/22 08:07:36;;;;;;;1.77;0.60;;;17.20;99.90;;;;;;4979718;28;20049;-68
2022/07/22 08:10:04;;;;;;;2.53;0.52;;;17.20;99.90;;;;;;4984581;28;20045;-68
2022/07/22 08:12:30;;;;;;;2.60;0.60;;;17.10;99.90;;;;;;4984808;28;20046;-68
2022/07/22 08:14:56;;;;;;;1.15;0.52;;;17.10;99.90;;;;;;4985546;28;20574;-68
2022/07/22 08:17:21;;;;;;;1.52;0.55;;;17.10;99.90;;;;;;4983883;28;20034;-68
2022/07/22 08:19:48;;;;;;;0.95;0.47;;;17.10;99.90;;;;;;4984199;28;20042;-68
2022/07/22 08:22:14;;;;;;;1.20;0.30;;;17.10;99.90;;;;;;4949519;28;20053;-68
2022/07/22 08:24:39;;;;;;;1.77;1.00;;;17.10;99.90;;;;;;4984484;28;20038;-68
2022/07/22 08:27:05;;;;;;;2.25;0.90;;;17.10;99.90;;;;;;4983731;28;20395;-68
2022/07/22 08:29:30;;;;;;;2.20;0.45;;;17.10;99.90;;;;;;4984658;28;20129;-68
2022/07/22 08:31:56;;;;;;;5.63;0.82;;;17.20;99.90;;;;;;4981960;28;20118;-68
2022/07/22 08:34:22;;;;;;;2.17;0.70;;;17.20;99.90;;;;;;4989830;28;20486;-68
2022/07/22 08:36:48;;;;;;;1.58;0.60;;;17.30;99.90;;;;;;4965871;28;20407;-68
2022/07/22 08:39:13;;;;;;;1.05;0.45;;;17.30;99.90;;;;;;4970802;28;20358;-69
2022/07/22 08:41:40;;;;;;;3.10;0.50;;;17.40;99.90;;;;;;4979259;28;20106;-68
2022/07/22 08:44:08;;;;;;;2.10;0.50;;;17.40;99.90;;;;;;4982243;28;20033;-68
2022/07/22 08:46:35;;;;;;;2.13;0.73;;;17.50;99.90;;;;;;4987468;28;20046;-69
2022/07/22 08:49:01;;;;;;;0.77;0.45;;;17.50;99.90;;;;;;4986267;28;20408;-68
2022/07/22 08:51:27;;;;;;;1.05;0.40;;;17.60;99.90;;;;;;4982687;28;20034;-69
2022/07/22 08:53:53;;;;;;;1.10;0.35;;;17.60;99.90;;;;;;4982657;28;20039;-69
2022/07/22 08:56:18;;;;;;;1.20;0.40;;;17.70;99.90;;;;;;4981073;28;20042;-69
2022/07/22 08:58:44;;;;;;;1.27;0.40;;;17.70;99.90;;;;;;4984876;28;20039;-69
2022/07/22 09:01:15;;;;;;;0.55;0.35;;;17.70;99.90;;;;;;4982865;28;20049;-69
2022/07/22 09:03:53;;;;;;;0.40;0.20;;;17.60;99.90;;;;;;4983931;28;20388;-68
2022/07/22 09:06:20;;;;;;;0.50;0.40;;;17.60;99.90;;;;;;4983243;28;20057;-68
2022/07/22 09:08:57;;;;;;;1.48;0.50;;;17.60;99.90;;;;;;4983934;28;20468;-68
2022/07/22 09:11:25;;;;;;;1.05;0.32;;;17.60;99.90;;;;;;4987918;28;20046;-68
2022/07/22 09:13:52;;;;;;;0.75;0.13;;;17.60;99.90;;;;;;4989905;28;20039;-68
2022/07/22 09:16:42;;;;;;;1.30;0.22;;;17.50;99.90;;;;;;4990004;28;20108;-68
2022/07/22 09:19:09;;;;;;;1.60;0.20;;;17.50;99.90;;;;;;4977607;28;20081;-68
2022/07/22 09:21:37;;;;;;;0.98;0.22;;;17.60;99.90;;;;;;4983948;28;20038;-70
2022/07/22 09:24:04;;;;;;;1.10;0.40;;;17.60;99.90;;;;;;4963672;28;20062;-70
2022/07/22 09:26:32;;;;;;;0.88;0.20;;;17.50;99.90;;;;;;4974176;28;20475;-70
2022/07/22 09:28:59;;;;;;;1.05;0.30;;;17.60;99.90;;;;;;4984775;28;20089;-70
2022/07/22 09:31:33;;;;;;;0.28;0.15;;;17.60;99.90;;;;;;4985743;28;20049;-70
2022/07/22 09:34:00;;;;;;;1.05;0.40;;;17.60;99.90;;;;;;4983836;28;20057;-70
2022/07/22 09:36:26;;;;;;;0.82;0.38;;;17.60;99.90;;;;;;4987897;28;20111;-70
2022/07/22 09:38:52;;;;;;;1.30;0.40;;;17.60;99.90;;;;;;4982236;28;20115;-71
2022/07/22 09:41:18;;;;;;;1.63;0.50;;;17.60;99.90;;;;;;4980915;28;20050;-70
2022/07/22 09:43:44;;;;;;;0.55;0.28;;;17.70;99.90;;;;;;4985959;28;20447;-70
2022/07/22 09:46:10;;;;;;;0.50;0.30;;;17.70;99.90;;;;;;4984182;28;20518;-71
2022/07/22 09:48:37;;;;;;;1.98;0.40;;;17.70;99.90;;;;;;4984820;28;20114;-73
2022/07/22 09:51:04;;;;;;;2.78;0.47;;;17.80;99.90;;;;;;4968493;28;20153;-70
2022/07/22 09:53:32;;;;;;;2.25;0.40;;;17.80;99.90;;;;;;4987461;28;20408;-71
2022/07/22 09:55:59;;;;;;;0.98;0.22;;;17.90;99.90;;;;;;4983736;28;20105;-71
2022/07/22 09:58:26;;;;;;;0.85;0.30;;;18.00;99.90;;;;;;4981739;28;20045;-71
2022/07/22 10:00:53;;;;;;;0.57;0.30;;;18.00;99.90;;;;;;4983244;28;20068;-71
2022/07/22 10:03:29;;;;;;;1.70;0.40;;;18.10;99.90;;;;;;4981447;28;20122;-71
2022/07/22 10:05:56;;;;;;;0.93;0.50;;;18.10;99.90;;;;;;4987453;28;20042;-71
2022/07/22 10:08:24;;;;;;;0.95;0.35;;;18.20;99.90;;;;;;4985501;28;20432;-71
2022/07/22 10:10:51;;;;;;;1.75;0.35;;;18.30;99.90;;;;;;4986440;28;20217;-70
2022/07/22 10:13:18;;;;;;;0.55;0.10;;;18.30;99.90;;;;;;4985737;28;20521;-70
2022/07/22 10:15:45;;;;;;;1.00;0.28;;;18.40;99.90;;;;;;4985346;28;20050;-71
2022/07/22 10:18:15;;;;;;;0.40;0.20;;;18.50;99.90;;;;;;4988390;28;20038;-70
2022/07/22 10:20:41;;;;;;;2.22;0.70;;;18.50;99.90;;;;;;4986120;28;20367;-71
2022/07/22 10:23:09;;;;;;;1.80;0.30;;;18.50;99.90;;;;;;4978603;28;20113;-71
2022/07/22 10:25:56;;;;;;;1.98;0.60;;;18.50;99.90;;;;;;4983296;28;20053;-71
2022/07/22 10:28:31;;;;;;;0.88;0.22;;;18.60;99.90;;;;;;4976949;28;20045;-71
2022/07/22 10:31:20;;;;;;;3.03;0.30;;;18.60;99.90;;;;;;4984506;28;20379;-71
2022/07/22 10:33:50;;;;;;;0.98;0.32;;;18.70;99.90;;;;;;4984646;28;20085;-71
2022/07/22 10:36:33;;;;;;;3.10;0.30;;;18.80;99.90;;;;;;4981394;28;20622;-71
2022/07/22 10:39:11;;;;;;;1.55;0.35;;;18.80;99.90;;;;;;4978288;28;20042;-71
2022/07/22 10:41:38;;;;;;;1.83;0.30;;;18.80;99.90;;;;;;4962008;28;20557;-71
2022/07/22 10:44:05;;;;;;;0.35;0.20;;;18.80;99.90;;;;;;4982937;28;20450;-71
2022/07/22 10:46:49;;;;;;;1.75;0.32;;;18.80;99.90;;;;;;4985951;28;20046;-71
2022/07/22 10:49:16;;;;;;;0.80;0.30;;;18.90;99.90;;;;;;4986724;28;20467;-71
2022/07/22 10:52:07;;;;;;;0.55;0.25;;;18.90;99.90;;;;;;4986010;28;20050;-71
2022/07/22 10:54:34;;;;;;;0.45;0.17;;;18.90;99.90;;;;;;4984603;28;20054;-71
2022/07/22 10:56:59;;;;;;;;;;;18.80;99.90;;;;;;4986686;28;20038;-71
2022/07/22 10:59:26;;;;;;;0.52;0.20;;;18.80;99.90;;;;;;4976602;28;19992;-71
2022/07/22 11:01:52;;;;;;;;;;;18.70;99.90;;;;;;4978899;28;20038;-71
2022/07/22 11:04:23;;;;;;;1.92;0.25;;;18.70;99.90;;;;;;4978072;28;19969;-71
2022/07/22 11:06:51;;;;;;;0.35;0.17;;;18.60;99.90;;;;;;4985169;28;20488;-71
2022/07/22 11:09:19;;;;;;;0.63;0.20;;;18.60;99.90;;;;;;4979415;28;20337;-71
2022/07/22 11:11:53;;;;;;;0.32;0.00;;;18.60;99.90;;;;;;4979497;28;20053;-71
2022/07/22 11:14:32;;;;;;;0.50;0.10;;;18.50;99.90;;;;;;4979467;28;20034;-71
2022/07/22 11:17:23;;;;;;;0.50;0.20;;;18.50;99.90;;;;;;4986430;28;20108;-71
2022/07/22 11:19:51;;;;;;;0.73;0.25;;;18.40;99.90;;;;;;4985121;28;20117;-71
2022/07/22 11:22:17;;;;;;;0.35;0.20;;;18.50;99.90;;;;;;4985512;28;20078;-70
2022/07/22 11:24:47;;;;;;;;;;;18.40;99.90;;;;;;4987074;28;20037;-71
2022/07/22 11:27:18;;;;;;;0.38;0.20;;;18.40;99.90;;;;;;4966466;28;20295;-71
2022/07/22 11:29:48;;;;;;;0.63;0.30;;;18.40;99.90;;;;;;4966650;28;20161;-71
2022/07/22 11:32:14;;;;;;;0.43;0.20;;;18.30;99.90;;;;;;4987381;28;20034;-71
2022/07/22 11:34:45;;;;;;;1.65;1.02;;;18.40;99.90;;;;;;4986185;28;20118;-71
2022/07/22 11:37:11;;;;;;;2.80;0.30;;;18.30;99.90;;;;;;4959745;28;20410;-71
2022/07/22 11:39:37;;;;;;;0.95;0.20;;;18.40;99.90;;;;;;4986528;28;20157;-71
2022/07/22 11:42:04;;;;;;;0.77;0.20;;;18.40;99.90;;;;;;4987119;28;20069;-71
2022/07/22 11:44:32;;;;;;;0.63;0.30;;;18.40;99.90;;;;;;4981367;28;20039;-71
2022/07/22 11:46:59;;;;;;;0.80;0.40;;;18.40;99.90;;;;;;4969844;28;20112;-71
2022/07/22 11:49:26;;;;;;;0.55;0.30;;;18.50;99.90;;;;;;4979041;28;20042;-71
2022/07/22 11:51:52;;;;;;;1.77;0.20;;;18.50;99.90;;;;;;4981888;28;20061;-71
2022/07/22 11:54:18;;;;;;;3.08;0.28;;;18.60;99.90;;;;;;4984016;28;20038;-71
2022/07/22 11:56:44;;;;;;;0.38;0.17;;;18.60;99.90;;;;;;4979473;28;20467;-71
2022/07/22 11:59:16;;;;;;;0.93;0.20;;;18.70;99.90;;;;;;4974258;28;20042;-71
2022/07/22 12:01:41;;;;;;;0.45;0.20;;;18.70;99.90;;;;;;4983206;28;20568;-71
2022/07/22 12:04:12;;;;;;;0.65;0.30;;;18.90;99.90;;;;;;4985385;28;20030;-71
2022/07/22 12:06:41;;;;;;;2.53;0.40;;;19.10;99.90;;;;;;4976625;28;20052;-71
2022/07/22 12:09:24;;;;;;;0.85;0.20;;;19.20;99.90;;;;;;4981527;28;20057;-71
2022/07/22 12:11:53;;;;;;;0.80;0.28;;;19.20;99.90;;;;;;4982128;28;20049;-71
2022/07/22 12:14:24;;;;;;;0.30;0.20;;;19.20;99.90;;;;;;4981110;28;20632;-71
2022/07/22 12:17:10;;;;;;;0.90;0.38;;;19.30;99.90;;;;;;4981388;28;20050;-71
2022/07/22 12:19:38;;;;;;;0.63;0.30;;;19.40;99.90;;;;;;4976503;28;20238;-71
2022/07/22 12:22:09;;;;;;;0.55;0.22;;;19.40;99.90;;;;;;4984601;28;20056;-71
2022/07/22 12:24:36;;;;;;;0.70;0.20;;;19.40;99.90;;;;;;4983367;28;20467;-71
2022/07/22 12:27:10;;;;;;;0.65;0.22;;;19.40;99.90;;;;;;4979722;28;20277;-71
2022/07/22 12:29:35;;;;;;;1.33;0.30;;;19.30;99.90;;;;;;4980572;28;20046;-71
2022/07/22 12:32:05;;;;;;;1.85;0.45;;;19.30;99.90;;;;;;4988978;28;20085;-71
2022/07/22 12:34:46;;;;;;;0.82;0.30;;;19.20;99.90;;;;;;4981804;28;20088;-71
2022/07/22 12:37:25;;;;;;;0.68;0.28;;;19.20;99.90;;;;;;4977722;28;20045;-71
2022/07/22 12:39:58;;;;;;;1.30;0.47;;;19.20;99.90;;;;;;4975301;28;20410;-71
2022/07/22 12:42:27;;;;;;;0.98;0.35;;;19.10;99.90;;;;;;5004604;23;20046;-88
2022/07/22 12:45:35;;;;;;;1.85;0.32;;;19.10;99.90;;;;;;4985014;28;20465;-87
2022/07/22 12:48:44;;;;;;;2.40;0.40;;;19.20;99.90;;;;;;4979194;28;20047;-87
2022/07/22 12:51:28;;;;;;;0.95;0.22;;;19.00;99.90;;;;;;4997793;28;20112;-87